Penrith, United Kingdom
Current Conditions -  °F | °C
As of 10:20 AM on Thursday 29 Jan 2015 (Local Time) from EGNC Reporting Station
Moderate Snow Moderate Snow  
Wind Chill: 21°   Ceiling: Unl
Heat Index: 32°   Visibility: 0.5mi
Dew Point: 32°   Wind: 17mph
Humidity: 100%   Direction: 270°W
Pressure: 28.85"   Gusts: NA
Location:  54.67°N, 2.76°W
Report Text: EGNC 291020Z 27015KT 0800 SN VV/// M00/M00 Q0977
Loading
Personal Weather Stations






























Interactive Weather Map New forecast layout! Learn more

10-Day Weather Forecast

Advertisements
Track Severe Weather on mobile